createdAt,value
2019-06-01T00:00:35.351Z,0.40
2019-06-01T00:01:35.498Z,0.20
2019-06-01T00:02:35.656Z,0.30
2019-06-01T00:03:35.823Z,0.50
2019-06-01T00:04:35.960Z,0.20
2019-06-01T00:05:36.713Z,0.40
2019-06-01T00:06:38.536Z,0.20
2019-06-01T00:07:37.226Z,0.30
2019-06-01T00:08:36.647Z,0.40
2019-06-01T00:09:36.806Z,0.70
2019-06-01T00:10:36.966Z,0.40
2019-06-01T00:11:39.092Z,0.20
2019-06-01T00:12:37.328Z,0.40
2019-06-01T00:13:37.731Z,0.40
2019-06-01T00:14:39.566Z,0.70
2019-06-01T00:15:37.808Z,0.40
2019-06-01T00:16:37.959Z,0.20
2019-06-01T00:17:38.129Z,0.30
2019-06-01T00:18:38.298Z,0.50
2019-06-01T00:19:38.426Z,0.40
2019-06-01T00:20:38.558Z,0.40
2019-06-01T00:21:38.713Z,0.20
2019-06-01T00:22:38.883Z,0.30
2019-06-01T00:23:40.301Z,0.30
2019-06-01T00:24:39.236Z,0.20
2019-06-01T00:25:40.436Z,0.40
2019-06-01T00:26:41.564Z,0.30
2019-06-01T00:27:40.443Z,0.40
2019-06-01T00:28:41.690Z,0.60
2019-06-01T00:29:41.211Z,0.30
2019-06-01T00:30:41.649Z,0.30
2019-06-01T00:31:41.212Z,0.20
2019-06-01T00:32:42.777Z,0.60
2019-06-01T00:33:41.208Z,0.20
2019-06-01T00:34:42.128Z,0.30
2019-06-01T00:35:41.374Z,0.20
2019-06-01T00:36:41.716Z,0.20
2019-06-01T00:37:43.382Z,0.20
2019-06-01T00:38:41.821Z,0.30
2019-06-01T00:40:14.871Z,0.30
2019-06-01T00:40:42.106Z,0.40
2019-06-01T00:41:42.358Z,0.20
2019-06-01T00:42:42.492Z,0.30
2019-06-01T00:43:42.614Z,0.40
2019-06-01T00:44:42.771Z,0.50
2019-06-01T00:45:42.896Z,0.30
2019-06-01T00:46:44.411Z,0.30
2019-06-01T00:47:44.658Z,0.30
2019-06-01T00:48:43.799Z,0.20
2019-06-01T00:49:44.797Z,0.20
2019-06-01T00:50:44.972Z,0.30
2019-06-01T00:51:46.927Z,0.20
2019-06-01T00:52:45.121Z,0.30
2019-06-01T00:53:45.467Z,0.30
2019-06-01T00:54:45.597Z,0.30
2019-06-01T00:55:45.996Z,0.20
2019-06-01T00:56:45.565Z,0.30
2019-06-01T00:57:45.680Z,0.40
2019-06-01T00:58:45.693Z,0.30
2019-06-01T00:59:47.985Z,0.30
2019-06-01T01:00:47.757Z,0.30
2019-06-01T01:01:45.950Z,0.20
2019-06-01T01:02:48.052Z,0.20
2019-06-01T01:03:46.361Z,0.20
2019-06-01T01:04:46.769Z,0.40
2019-06-01T01:05:47.102Z,0.20
2019-06-01T01:06:49.242Z,0.30
2019-06-01T01:08:22.183Z,0.40
2019-06-01T01:08:47.161Z,0.30
2019-06-01T01:09:48.792Z,0.20
2019-06-01T01:10:47.465Z,0.20
2019-06-01T01:11:49.136Z,0.30
2019-06-01T01:12:49.057Z,0.40
2019-06-01T01:13:49.150Z,0.20
2019-06-01T01:14:49.151Z,0.30
2019-06-01T01:15:49.302Z,0.30
2019-06-01T01:16:49.459Z,0.30
2019-06-01T01:17:49.774Z,0.20
2019-06-01T01:18:49.753Z,0.30
2019-06-01T01:19:49.685Z,0.40
2019-06-01T01:20:50.059Z,0.50
2019-06-01T01:21:49.937Z,0.20
2019-06-01T01:22:50.272Z,0.20
2019-06-01T01:23:50.793Z,0.30
2019-06-01T01:24:50.491Z,0.30
2019-06-01T01:25:50.506Z,0.40
2019-06-01T01:26:50.540Z,0.30
2019-06-01T01:27:51.284Z,0.30
2019-06-01T01:28:50.745Z,0.40
2019-06-01T01:29:51.290Z,0.40
2019-06-01T01:31:03.031Z,0.30
2019-06-01T01:31:53.252Z,0.20
2019-06-01T01:32:51.778Z,0.30
2019-06-01T01:33:53.452Z,0.20
2019-06-01T01:34:53.728Z,0.20
2019-06-01T01:35:52.643Z,0.50
2019-06-01T01:36:54.335Z,0.30
2019-06-01T01:37:52.143Z,0.60
2019-06-01T01:38:54.241Z,0.30
2019-06-01T01:39:54.236Z,0.30
2019-06-01T01:40:52.629Z,0.20
2019-06-01T01:41:52.772Z,0.60
2019-06-01T01:42:54.445Z,0.20
2019-06-01T01:43:53.088Z,0.30
2019-06-01T01:44:54.652Z,0.50
2019-06-01T01:45:54.724Z,0.30
2019-06-01T01:46:54.778Z,0.20
2019-06-01T01:47:54.974Z,0.30
2019-06-01T01:48:54.259Z,0.50
2019-06-01T01:49:54.125Z,0.20
2019-06-01T01:50:54.379Z,0.20
2019-06-01T01:51:55.429Z,0.30
2019-06-01T01:52:54.844Z,0.20
2019-06-01T01:53:54.794Z,0.20
2019-06-01T01:54:56.813Z,0.40
2019-06-01T01:55:55.217Z,0.40
2019-06-01T01:56:56.305Z,0.30
2019-06-01T01:57:55.553Z,0.30
2019-06-01T01:58:56.615Z,0.20
2019-06-01T02:00:14.762Z,0.30
2019-06-01T02:00:56.847Z,0.40
2019-06-01T02:01:57.243Z,0.30
2019-06-01T02:02:56.697Z,0.40
2019-06-01T02:04:31.711Z,0.20
2019-06-01T02:04:57.787Z,0.20
2019-06-01T02:05:57.042Z,0.30
2019-06-01T02:06:58.462Z,0.30
2019-06-01T02:08:00.095Z,0.30
2019-06-01T02:08:59.332Z,0.30
2019-06-01T02:09:57.671Z,0.50
2019-06-01T02:10:59.548Z,0.30
2019-06-01T02:11:57.930Z,0.30
2019-06-01T02:12:58.080Z,0.40
2019-06-01T02:13:59.956Z,0.30
2019-06-01T02:14:58.383Z,0.40
2019-06-01T02:15:58.581Z,0.40
2019-06-01T02:17:00.233Z,0.20
2019-06-01T02:18:00.618Z,0.30
2019-06-01T02:19:19.996Z,0.40
2019-06-01T02:20:00.212Z,0.20
2019-06-01T02:21:22.216Z,0.30
2019-06-01T02:22:00.682Z,0.50
2019-06-01T02:23:00.965Z,0.30
2019-06-01T02:24:01.264Z,0.20
2019-06-01T02:25:02.114Z,0.50
2019-06-01T02:26:01.153Z,0.40
2019-06-01T02:27:22.310Z,0.20
2019-06-01T02:28:01.522Z,0.20
2019-06-01T02:29:02.015Z,0.30
2019-06-01T02:30:04.822Z,0.20
2019-06-01T02:31:02.107Z,0.30
2019-06-01T02:32:35.225Z,0.30
2019-06-01T02:33:02.372Z,0.40
2019-06-01T02:34:03.381Z,0.50
2019-06-01T02:35:02.643Z,0.60
2019-06-01T02:36:03.539Z,0.30
2019-06-01T02:37:04.440Z,0.20
2019-06-01T02:38:03.126Z,0.30
2019-06-01T02:39:05.095Z,0.30
2019-06-01T02:40:03.285Z,0.30
2019-06-01T02:41:05.487Z,0.20
2019-06-01T02:42:03.486Z,0.20
2019-06-01T02:43:06.893Z,0.30
2019-06-01T02:44:06.138Z,0.30
2019-06-01T02:45:03.622Z,0.30
2019-06-01T02:46:07.429Z,0.30
2019-06-01T02:47:04.519Z,0.30
2019-06-01T02:48:06.287Z,0.40
2019-06-01T02:49:04.767Z,0.40
2019-06-01T02:50:06.355Z,0.20
2019-06-01T02:51:05.394Z,0.30
2019-06-01T02:52:05.501Z,0.40
2019-06-01T02:53:06.860Z,0.20
2019-06-01T02:54:06.163Z,0.60
2019-06-01T02:55:06.491Z,0.20
2019-06-01T02:56:06.242Z,0.30
2019-06-01T02:57:06.213Z,0.20
2019-06-01T02:58:06.664Z,0.30
2019-06-01T02:59:06.730Z,0.20
2019-06-01T03:00:06.702Z,0.20
2019-06-01T03:01:07.844Z,0.30
2019-06-01T03:02:10.924Z,0.30
2019-06-01T03:03:08.618Z,0.30
2019-06-01T03:04:08.119Z,0.20
2019-06-01T03:05:07.680Z,0.50
2019-06-01T03:06:08.094Z,0.20
2019-06-01T03:07:08.695Z,0.40
2019-06-01T03:08:07.649Z,0.20
2019-06-01T03:09:09.014Z,0.30
2019-06-01T03:10:08.941Z,0.30
2019-06-01T03:11:08.154Z,0.30
2019-06-01T03:12:09.251Z,0.20
2019-06-01T03:13:08.497Z,0.30
2019-06-01T03:14:09.002Z,0.30
2019-06-01T03:15:10.353Z,0.40
2019-06-01T03:16:08.989Z,0.70
2019-06-01T03:17:10.143Z,0.20
2019-06-01T03:18:09.370Z,0.20
2019-06-01T03:19:09.858Z,0.20
2019-06-01T03:20:09.694Z,0.30
2019-06-01T03:21:09.820Z,0.30
2019-06-01T03:22:09.941Z,0.40
2019-06-01T03:23:10.156Z,0.30
2019-06-01T03:24:10.306Z,0.30
2019-06-01T03:25:10.428Z,0.40
2019-06-01T03:26:10.664Z,0.30
2019-06-01T03:27:10.786Z,0.40
2019-06-01T03:28:44.804Z,0.20
2019-06-01T03:29:12.674Z,0.30
2019-06-01T03:30:14.819Z,0.30
2019-06-01T03:31:13.471Z,0.20
2019-06-01T03:32:33.217Z,0.50
2019-06-01T03:33:14.341Z,0.20
2019-06-01T03:34:13.963Z,0.30
2019-06-01T03:35:13.384Z,0.20
2019-06-01T03:36:13.137Z,0.20
2019-06-01T03:37:13.400Z,0.20
2019-06-01T03:38:12.664Z,0.30
2019-06-01T03:39:13.371Z,0.50
2019-06-01T03:40:23.240Z,0.30
2019-06-01T03:41:15.131Z,0.40
2019-06-01T03:42:13.864Z,0.60
2019-06-01T03:43:13.354Z,0.20
2019-06-01T03:44:13.501Z,0.50
2019-06-01T03:45:13.761Z,0.40
2019-06-01T03:46:13.801Z,0.60
2019-06-01T03:47:13.974Z,0.30
2019-06-01T03:48:14.123Z,0.30
2019-06-01T03:49:14.861Z,0.60
2019-06-01T03:50:14.514Z,0.30
2019-06-01T03:51:14.648Z,0.40
2019-06-01T03:52:14.810Z,0.20
2019-06-01T03:53:14.951Z,0.30
2019-06-01T03:54:15.087Z,0.30
2019-06-01T03:55:15.221Z,0.30
2019-06-01T03:56:15.498Z,0.40
2019-06-01T03:57:16.370Z,1.00
2019-06-01T03:58:15.882Z,0.30
2019-06-01T03:59:16.018Z,0.40
2019-06-01T04:00:16.876Z,0.20
2019-06-01T04:01:16.866Z,0.30
2019-06-01T04:02:17.373Z,0.20
2019-06-01T04:03:16.871Z,0.30
2019-06-01T04:04:16.850Z,0.30
2019-06-01T04:05:17.014Z,1.20
2019-06-01T04:06:17.209Z,0.70
2019-06-01T04:07:17.867Z,0.30
2019-06-01T04:08:17.603Z,0.30
2019-06-01T04:09:17.710Z,0.40
2019-06-01T04:10:17.934Z,0.20
2019-06-01T04:11:18.876Z,0.30
2019-06-01T04:12:18.356Z,0.80
2019-06-01T04:13:18.611Z,0.20
2019-06-01T04:14:19.380Z,0.40
2019-06-01T04:15:18.846Z,0.20
2019-06-01T04:16:18.968Z,0.30
2019-06-01T04:17:19.202Z,0.30
2019-06-01T04:18:19.880Z,0.30
2019-06-01T04:19:19.579Z,0.40
2019-06-01T04:20:19.813Z,0.50
2019-06-01T04:21:19.919Z,0.40
2019-06-01T04:22:20.910Z,0.60
2019-06-01T04:23:20.299Z,0.70
2019-06-01T04:24:20.414Z,0.30
2019-06-01T04:25:20.550Z,0.30
2019-06-01T04:26:20.659Z,0.60
2019-06-01T04:27:20.828Z,0.50
2019-06-01T04:28:20.960Z,0.50
2019-06-01T04:29:21.079Z,0.30
2019-06-01T04:30:21.309Z,0.40
2019-06-01T04:31:21.406Z,0.30
2019-06-01T04:32:21.651Z,0.60
2019-06-01T04:33:22.398Z,0.30
2019-06-01T04:34:21.989Z,0.30
2019-06-01T04:35:23.222Z,0.40
2019-06-01T04:36:22.416Z,0.30
2019-06-01T04:37:22.647Z,0.30
2019-06-01T04:38:22.881Z,0.50
2019-06-01T04:39:23.040Z,0.30
2019-06-01T04:40:23.176Z,0.40
2019-06-01T04:41:23.336Z,0.60
2019-06-01T04:42:23.440Z,0.40
2019-06-01T04:43:23.895Z,0.30
2019-06-01T04:44:23.794Z,0.90
2019-06-01T04:45:23.938Z,0.20
2019-06-01T04:46:24.107Z,0.50
2019-06-01T04:47:24.238Z,0.40
2019-06-01T04:48:24.362Z,0.50
2019-06-01T04:49:24.562Z,0.40
2019-06-01T04:50:24.726Z,0.30
2019-06-01T04:51:24.866Z,0.30
2019-06-01T04:52:24.992Z,0.40
2019-06-01T04:53:25.098Z,0.40
2019-06-01T04:54:25.343Z,0.30
2019-06-01T04:55:25.589Z,0.50
2019-06-01T04:56:25.694Z,0.60
2019-06-01T04:57:25.934Z,0.40
2019-06-01T04:58:26.179Z,1.00
2019-06-01T04:59:26.308Z,0.40
2019-06-01T05:00:28.067Z,1.20
2019-06-01T05:01:27.662Z,0.30
2019-06-01T05:02:26.870Z,0.50
2019-06-01T05:03:27.110Z,0.40
2019-06-01T05:04:27.351Z,0.40
2019-06-01T05:05:27.897Z,0.30
2019-06-01T05:06:27.613Z,0.90
2019-06-01T05:07:27.740Z,0.40
2019-06-01T05:08:27.847Z,0.30
2019-06-01T05:09:27.984Z,0.40
2019-06-01T05:10:28.143Z,0.40
2019-06-01T05:11:28.277Z,0.70
2019-06-01T05:12:28.416Z,0.50
2019-06-01T05:13:28.538Z,0.40
2019-06-01T05:14:29.381Z,0.70
2019-06-01T05:15:28.907Z,0.50
2019-06-01T05:16:29.401Z,0.40
2019-06-01T05:17:29.265Z,0.40
2019-06-01T05:18:29.417Z,0.40
2019-06-01T05:19:30.384Z,0.70
2019-06-01T05:20:29.782Z,0.60
2019-06-01T05:21:30.409Z,0.60
2019-06-01T05:22:30.084Z,0.70
2019-06-01T05:23:30.887Z,0.70
2019-06-01T05:24:30.390Z,0.80
2019-06-01T05:25:30.541Z,0.70
2019-06-01T05:26:30.731Z,0.30
2019-06-01T05:27:31.389Z,0.90
2019-06-01T05:28:31.040Z,0.70
2019-06-01T05:29:31.197Z,0.70
2019-06-01T05:30:31.419Z,0.60
2019-06-01T05:31:31.549Z,0.70
2019-06-01T05:32:31.759Z,0.60
2019-06-01T05:33:37.330Z,0.40
2019-06-01T05:34:34.030Z,0.50
2019-06-01T05:35:32.246Z,0.50
2019-06-01T05:36:33.388Z,0.70
2019-06-01T05:37:32.922Z,0.80
2019-06-01T05:38:32.844Z,0.60
2019-06-01T05:39:33.009Z,0.60
2019-06-01T05:40:33.174Z,0.40
2019-06-01T05:41:33.351Z,0.50
2019-06-01T05:42:33.560Z,0.70
2019-06-01T05:43:34.407Z,0.50
2019-06-01T05:44:33.893Z,0.70
2019-06-01T05:45:34.124Z,0.70
2019-06-01T05:46:34.271Z,0.70
2019-06-01T05:47:34.912Z,0.60
2019-06-01T05:48:34.542Z,0.80
2019-06-01T05:49:34.673Z,0.40
2019-06-01T05:50:34.804Z,0.60
2019-06-01T05:51:34.952Z,0.80
2019-06-01T05:52:35.104Z,0.80
2019-06-01T05:53:35.225Z,0.60
2019-06-01T05:54:35.912Z,0.60
2019-06-01T05:55:35.513Z,1.20
2019-06-01T05:56:35.738Z,0.80
2019-06-01T05:57:35.982Z,0.60
2019-06-01T05:58:36.112Z,1.00
2019-06-01T05:59:36.319Z,0.50
2019-06-01T06:00:36.564Z,0.80
2019-06-01T06:01:36.686Z,0.80
2019-06-01T06:02:36.803Z,0.70
2019-06-01T06:03:40.274Z,1.10
2019-06-01T06:04:38.313Z,0.80
2019-06-01T06:05:37.405Z,0.60
2019-06-01T06:06:37.531Z,0.70
2019-06-01T06:07:44.422Z,0.60
2019-06-01T06:08:38.425Z,0.40
2019-06-01T06:09:39.087Z,0.50
2019-06-01T06:10:38.263Z,1.40
2019-06-01T06:11:38.423Z,0.70
2019-06-01T06:12:38.566Z,0.50
2019-06-01T06:13:38.737Z,0.50
2019-06-01T06:14:38.885Z,0.40
2019-06-01T06:15:39.916Z,0.50
2019-06-01T06:16:39.930Z,0.60
2019-06-01T06:17:39.325Z,0.50
2019-06-01T06:18:39.471Z,0.70
2019-06-01T06:19:39.607Z,0.60
2019-06-01T06:20:39.751Z,0.70
2019-06-01T06:21:40.421Z,0.70
2019-06-01T06:22:41.287Z,0.40
2019-06-01T06:23:41.257Z,0.50
2019-06-01T06:24:40.410Z,0.60
2019-06-01T06:25:41.500Z,0.60
2019-06-01T06:26:41.682Z,0.70
2019-06-01T06:27:40.890Z,1.00
2019-06-01T06:28:41.142Z,0.60
2019-06-01T06:29:41.387Z,0.60
2019-06-01T06:30:42.418Z,0.70
2019-06-01T06:31:42.418Z,0.80
2019-06-01T06:32:41.761Z,0.70
2019-06-01T06:33:55.535Z,0.60
2019-06-01T06:34:44.155Z,0.60
2019-06-01T06:35:42.920Z,0.60
2019-06-01T06:36:42.916Z,0.80
2019-06-01T06:37:42.569Z,0.90
2019-06-01T06:38:42.694Z,0.90
2019-06-01T06:39:42.953Z,0.80
2019-06-01T06:40:43.919Z,0.80
2019-06-01T06:41:43.275Z,1.20
2019-06-01T06:42:43.407Z,0.80
2019-06-01T06:44:16.950Z,1.00
2019-06-01T06:44:43.684Z,1.00
2019-06-01T06:45:43.817Z,0.60
2019-06-01T06:46:44.458Z,0.80
2019-06-01T06:47:44.222Z,1.00
2019-06-01T06:48:44.346Z,0.80
2019-06-01T06:49:44.476Z,1.00
2019-06-01T06:50:44.640Z,1.00
2019-06-01T06:51:45.455Z,0.80
2019-06-01T06:52:44.949Z,1.10
2019-06-01T06:53:45.957Z,1.40
2019-06-01T06:54:45.320Z,0.80
2019-06-01T06:55:45.484Z,0.60
2019-06-01T06:56:46.451Z,0.80
2019-06-01T06:57:45.861Z,0.60
2019-06-01T06:58:46.014Z,0.80
2019-06-01T06:59:46.156Z,0.60
2019-06-01T07:00:46.310Z,0.80
2019-06-01T07:01:47.452Z,0.70
2019-06-01T07:02:47.462Z,0.60
2019-06-01T07:03:46.726Z,0.80
2019-06-01T07:04:46.892Z,0.80
2019-06-01T07:05:47.102Z,0.80
2019-06-01T07:06:47.256Z,1.00
2019-06-01T07:07:47.428Z,1.20
2019-06-01T07:08:49.004Z,0.80
2019-06-01T07:09:49.458Z,0.80
2019-06-01T07:10:47.995Z,0.90
2019-06-01T07:11:48.953Z,0.90
2019-06-01T07:12:48.951Z,0.90
2019-06-01T07:13:48.484Z,1.20
2019-06-01T07:14:49.486Z,1.00
2019-06-01T07:15:49.012Z,1.00
2019-06-01T07:16:49.486Z,1.20
2019-06-01T07:17:49.947Z,1.20
2019-06-01T07:18:49.487Z,1.00
2019-06-01T07:19:50.463Z,1.20
2019-06-01T07:20:49.848Z,0.70
2019-06-01T07:21:50.062Z,1.20
2019-06-01T07:22:50.257Z,0.90
2019-06-01T07:23:50.990Z,1.10
2019-06-01T07:24:50.627Z,0.90
2019-06-01T07:25:50.800Z,1.00
2019-06-01T07:26:50.987Z,0.90
2019-06-01T07:27:51.170Z,1.10
2019-06-01T07:28:51.361Z,1.00
2019-06-01T07:29:51.592Z,0.80
2019-06-01T07:30:51.785Z,1.10
2019-06-01T07:31:52.004Z,1.10
2019-06-01T07:32:52.217Z,0.80
2019-06-01T07:33:52.969Z,1.20
2019-06-01T07:34:52.521Z,1.00
2019-06-01T07:35:52.713Z,0.80
2019-06-01T07:36:52.976Z,1.10
2019-06-01T07:37:53.055Z,1.30
2019-06-01T07:38:53.224Z,0.90
2019-06-01T07:40:26.905Z,1.30
2019-06-01T07:40:53.497Z,0.80
2019-06-01T07:41:53.636Z,1.10
2019-06-01T07:42:53.846Z,1.00
2019-06-01T07:43:54.987Z,0.80
2019-06-01T07:44:54.235Z,0.90
2019-06-01T07:45:54.405Z,0.90
2019-06-01T07:46:54.551Z,0.90
2019-06-01T07:47:54.677Z,1.00
2019-06-01T07:48:54.801Z,1.20
2019-06-01T07:49:54.953Z,0.70
2019-06-01T07:50:55.206Z,0.90
2019-06-01T07:51:55.434Z,0.90
2019-06-01T07:52:55.453Z,1.00
2019-06-01T07:53:56.492Z,1.20
2019-06-01T07:54:55.719Z,1.00
2019-06-01T07:55:55.893Z,1.00
2019-06-01T07:56:56.010Z,0.90
2019-06-01T07:57:56.172Z,1.10
2019-06-01T07:58:56.294Z,0.90
2019-06-01T07:59:56.416Z,1.00
2019-06-01T08:00:56.572Z,0.90
2019-06-01T08:01:56.733Z,0.90
2019-06-01T08:02:56.954Z,1.10
2019-06-01T08:03:57.091Z,1.20
2019-06-01T08:04:58.018Z,1.20
2019-06-01T08:05:57.996Z,1.10
2019-06-01T08:06:58.049Z,1.10
2019-06-01T08:08:31.539Z,1.10
2019-06-01T08:08:58.532Z,1.00
2019-06-01T08:09:58.595Z,0.90
2019-06-01T08:10:59.025Z,1.10
2019-06-01T08:11:58.382Z,0.80
2019-06-01T08:12:59.039Z,0.90
2019-06-01T08:13:58.684Z,1.00
2019-06-01T08:14:59.535Z,0.80
2019-06-01T08:15:59.510Z,1.20
2019-06-01T08:16:59.243Z,0.90
2019-06-01T08:17:59.401Z,0.90
2019-06-01T08:18:59.577Z,1.00
2019-06-01T08:19:59.721Z,0.80
2019-06-01T08:20:59.961Z,0.80
2019-06-01T08:22:01.036Z,0.90
2019-06-01T08:23:00.396Z,1.10
2019-06-01T08:24:00.563Z,0.80
2019-06-01T08:25:00.705Z,0.70
2019-06-01T08:26:00.861Z,0.90
2019-06-01T08:27:00.979Z,0.70
2019-06-01T08:28:01.106Z,0.70
2019-06-01T08:29:01.246Z,0.80
2019-06-01T08:30:01.413Z,0.90
2019-06-01T08:31:02.530Z,0.90
2019-06-01T08:32:02.527Z,1.00
2019-06-01T08:33:02.014Z,1.00
2019-06-01T08:34:02.177Z,0.70
2019-06-01T08:35:08.584Z,0.90
2019-06-01T08:36:04.498Z,1.00
2019-06-01T08:37:02.756Z,0.80
2019-06-01T08:38:02.933Z,1.00
2019-06-01T08:39:03.093Z,0.80
2019-06-01T08:40:03.401Z,0.90
2019-06-01T08:41:03.497Z,0.80
2019-06-01T08:42:04.555Z,1.00
2019-06-01T08:43:03.822Z,1.00
2019-06-01T08:44:03.967Z,0.70
2019-06-01T08:45:04.164Z,0.80
2019-06-01T08:46:04.339Z,0.80
2019-06-01T08:47:04.571Z,1.10
2019-06-01T08:48:04.802Z,0.90
2019-06-01T08:49:04.839Z,0.70
2019-06-01T08:50:05.012Z,0.80
2019-06-01T08:51:05.194Z,0.70
2019-06-01T08:52:05.358Z,0.70
2019-06-01T08:53:05.528Z,0.70
2019-06-01T08:54:05.706Z,0.90
2019-06-01T08:55:05.878Z,1.00
2019-06-01T08:56:06.049Z,0.90
2019-06-01T08:57:06.228Z,0.80
2019-06-01T08:58:06.389Z,1.00
2019-06-01T08:59:06.534Z,0.90
2019-06-01T09:00:07.529Z,0.80
2019-06-01T09:01:06.875Z,1.10
2019-06-01T09:02:07.050Z,1.00
2019-06-01T09:03:07.178Z,0.90
2019-06-01T09:04:07.317Z,1.10
2019-06-01T09:05:21.279Z,0.80
2019-06-01T09:06:08.578Z,1.00
2019-06-01T09:07:07.826Z,1.10
2019-06-01T09:08:08.537Z,0.90
2019-06-01T09:09:11.547Z,1.30
2019-06-01T09:10:09.046Z,1.20
2019-06-01T09:11:08.416Z,1.10
2019-06-01T09:12:09.572Z,1.10
2019-06-01T09:13:08.805Z,1.00
2019-06-01T09:14:08.938Z,1.00
2019-06-01T09:15:10.056Z,1.10
2019-06-01T09:16:10.051Z,1.20
2019-06-01T09:17:10.069Z,1.00
2019-06-01T09:18:09.598Z,1.10
2019-06-01T09:19:11.366Z,1.20
2019-06-01T09:20:10.991Z,1.10
2019-06-01T09:21:10.105Z,1.10
2019-06-01T09:22:10.326Z,1.10
2019-06-01T09:23:10.528Z,1.00
2019-06-01T09:24:10.644Z,1.20
2019-06-01T09:25:11.562Z,1.20
2019-06-01T09:26:10.940Z,1.20
2019-06-01T09:27:12.060Z,1.20
2019-06-01T09:28:11.312Z,1.10
2019-06-01T09:29:11.560Z,1.00
2019-06-01T09:30:11.563Z,1.40
2019-06-01T09:31:11.691Z,1.10
2019-06-01T09:32:11.852Z,1.10
2019-06-01T09:33:12.018Z,1.00
2019-06-01T09:34:12.176Z,1.10
2019-06-01T09:35:12.311Z,1.10
2019-06-01T09:36:12.489Z,1.10
2019-06-01T09:37:12.616Z,1.00
2019-06-01T09:38:13.552Z,1.10
2019-06-01T09:39:12.951Z,0.90
2019-06-01T09:40:13.104Z,1.00
2019-06-01T09:41:13.336Z,1.00
2019-06-01T09:42:13.403Z,1.10
2019-06-01T09:43:13.535Z,1.10
2019-06-01T09:44:13.691Z,0.90
2019-06-01T09:45:13.847Z,1.30
2019-06-01T09:46:14.557Z,1.00
2019-06-01T09:47:14.200Z,1.10
2019-06-01T09:48:14.346Z,1.20
2019-06-01T09:49:14.516Z,1.10
2019-06-01T09:50:14.702Z,0.90
2019-06-01T09:51:14.856Z,1.10
2019-06-01T09:52:15.024Z,1.00
2019-06-01T09:53:15.174Z,1.00
2019-06-01T09:54:16.325Z,0.90
2019-06-01T09:55:15.572Z,1.00
2019-06-01T09:56:15.622Z,1.30
2019-06-01T09:57:15.789Z,0.80
2019-06-01T09:58:15.966Z,1.00
2019-06-01T09:59:16.121Z,1.20
2019-06-01T10:00:16.319Z,1.20
2019-06-01T10:01:16.464Z,1.00
2019-06-01T10:02:16.630Z,1.20
2019-06-01T10:03:16.780Z,1.10
2019-06-01T10:04:16.945Z,1.10
2019-06-01T10:05:17.110Z,1.10
2019-06-01T10:06:18.096Z,1.10
2019-06-01T10:07:17.483Z,1.10
2019-06-01T10:08:17.621Z,1.10
2019-06-01T10:09:17.740Z,1.20
2019-06-01T10:10:17.901Z,1.20
2019-06-01T10:11:18.076Z,1.00
2019-06-01T10:12:19.101Z,1.20
2019-06-01T10:13:18.351Z,1.30
2019-06-01T10:14:18.487Z,1.30
2019-06-01T10:15:19.073Z,1.10
2019-06-01T10:16:18.807Z,1.30
2019-06-01T10:17:18.937Z,1.10
2019-06-01T10:18:20.080Z,1.30
2019-06-01T10:19:19.178Z,1.10
2019-06-01T10:20:20.071Z,1.50
2019-06-01T10:21:19.588Z,1.30
2019-06-01T10:22:19.631Z,1.30
2019-06-01T10:23:19.783Z,1.20
2019-06-01T10:24:19.921Z,1.20
2019-06-01T10:25:20.048Z,1.20
2019-06-01T10:26:20.222Z,1.00
2019-06-01T10:27:20.389Z,1.20
2019-06-01T10:28:20.537Z,1.00
2019-06-01T10:29:20.670Z,1.10
2019-06-01T10:30:21.582Z,1.20
2019-06-01T10:31:20.939Z,1.30
2019-06-01T10:32:21.120Z,1.20
2019-06-01T10:33:21.246Z,1.10
2019-06-01T10:34:21.364Z,1.20
2019-06-01T10:35:21.618Z,1.30
2019-06-01T10:36:21.814Z,1.20
2019-06-01T10:37:22.089Z,1.20
2019-06-01T10:38:22.108Z,1.30
2019-06-01T10:39:22.214Z,1.10
2019-06-01T10:40:22.453Z,1.10
2019-06-01T10:41:22.617Z,1.20
2019-06-01T10:42:23.089Z,1.10
2019-06-01T10:43:22.937Z,1.30
2019-06-01T10:44:23.053Z,1.20
2019-06-01T10:45:24.092Z,1.30
2019-06-01T10:46:23.460Z,1.40
2019-06-01T10:47:23.587Z,1.40
2019-06-01T10:48:23.833Z,1.20
2019-06-01T10:49:23.921Z,1.30
2019-06-01T10:50:24.054Z,1.30
2019-06-01T10:51:24.285Z,1.40
2019-06-01T10:52:24.542Z,1.30
2019-06-01T10:53:24.671Z,1.20
2019-06-01T10:54:24.775Z,1.20
2019-06-01T10:55:25.149Z,1.30
2019-06-01T10:56:25.143Z,1.30
2019-06-01T10:57:25.392Z,1.40
2019-06-01T10:58:25.606Z,1.20
2019-06-01T10:59:26.100Z,1.60
2019-06-01T11:00:37.750Z,1.40
2019-06-01T11:01:32.241Z,1.30
2019-06-01T11:02:27.083Z,1.30
2019-06-01T11:03:26.525Z,1.30
2019-06-01T11:04:26.794Z,1.60
2019-06-01T11:05:27.018Z,1.30
2019-06-01T11:06:36.615Z,1.60
2019-06-01T11:07:29.321Z,1.40
2019-06-01T11:08:27.549Z,1.40
2019-06-01T11:09:27.785Z,1.30
2019-06-01T11:10:28.590Z,1.30
2019-06-01T11:11:28.587Z,1.20
2019-06-01T11:12:28.174Z,1.10
2019-06-01T11:13:28.403Z,1.20
2019-06-01T11:14:28.650Z,1.30
2019-06-01T11:15:29.098Z,1.30
2019-06-01T11:16:28.958Z,1.30
2019-06-01T11:17:29.094Z,1.30
2019-06-01T11:18:29.235Z,1.20
2019-06-01T11:19:29.627Z,1.60
2019-06-01T11:20:29.485Z,1.10
2019-06-01T11:21:29.600Z,1.30
2019-06-01T11:22:29.847Z,1.10
2019-06-01T11:23:30.585Z,1.00
2019-06-01T11:24:30.609Z,1.10
2019-06-01T11:25:30.327Z,1.10
2019-06-01T11:26:30.669Z,1.30
2019-06-01T11:27:30.733Z,1.10
2019-06-01T11:28:30.947Z,1.20
2019-06-01T11:29:31.110Z,1.20
2019-06-01T11:30:31.251Z,1.20
2019-06-01T11:31:31.410Z,1.30
2019-06-01T11:32:31.526Z,1.30
2019-06-01T11:33:31.670Z,1.20
2019-06-01T11:34:31.802Z,1.10
2019-06-01T11:35:31.961Z,1.00
2019-06-01T11:36:32.110Z,1.10
2019-06-01T11:37:32.277Z,1.10
2019-06-01T11:38:32.556Z,1.10
2019-06-01T11:39:32.578Z,1.10
2019-06-01T11:40:34.351Z,1.10
2019-06-01T11:41:32.905Z,1.10
2019-06-01T11:42:34.946Z,1.10
2019-06-01T11:43:34.469Z,1.20
2019-06-01T11:44:34.668Z,1.00
2019-06-01T11:45:34.865Z,1.20
2019-06-01T11:46:34.759Z,1.10
2019-06-01T11:47:35.047Z,1.10
2019-06-01T11:48:35.166Z,1.10
2019-06-01T11:49:34.710Z,1.10
2019-06-01T11:50:36.900Z,1.20
2019-06-01T11:51:34.920Z,1.10
2019-06-01T11:52:35.042Z,1.70
2019-06-01T11:53:37.321Z,1.10
2019-06-01T11:54:36.945Z,1.10
2019-06-01T11:55:35.618Z,1.00
2019-06-01T11:56:37.253Z,1.20
2019-06-01T11:57:37.343Z,1.10
2019-06-01T11:58:36.977Z,1.10
2019-06-01T11:59:37.279Z,1.20
2019-06-01T12:00:37.543Z,1.00
2019-06-01T12:01:37.715Z,1.10
2019-06-01T12:02:37.451Z,1.10
2019-06-01T12:03:37.647Z,1.00
2019-06-01T12:04:38.110Z,1.30
2019-06-01T12:05:37.890Z,1.10
2019-06-01T12:06:39.809Z,1.20
2019-06-01T12:07:37.942Z,1.20
2019-06-01T12:08:38.177Z,1.10
2019-06-01T12:09:40.141Z,1.10
2019-06-01T12:10:38.987Z,1.20
2019-06-01T12:11:40.052Z,1.10
2019-06-01T12:12:40.027Z,1.40
2019-06-01T12:13:40.149Z,1.10
2019-06-01T12:14:40.292Z,1.10
2019-06-01T12:15:40.346Z,1.20
2019-06-01T12:16:40.378Z,1.20
2019-06-01T12:17:40.676Z,1.10
2019-06-01T12:18:40.587Z,1.10
2019-06-01T12:19:40.727Z,1.50
2019-06-01T12:20:40.831Z,1.30
2019-06-01T12:21:40.934Z,1.50
2019-06-01T12:22:40.858Z,1.10
2019-06-01T12:23:41.477Z,1.20
2019-06-01T12:24:40.980Z,1.20
2019-06-01T12:25:42.117Z,1.30
2019-06-01T12:26:43.404Z,1.20
2019-06-01T12:27:41.724Z,1.00
2019-06-01T12:28:42.206Z,1.20
2019-06-01T12:29:41.673Z,1.10
2019-06-01T12:30:41.832Z,1.00
2019-06-01T12:31:41.958Z,1.20
2019-06-01T12:32:42.115Z,1.20
2019-06-01T12:33:42.245Z,1.00
2019-06-01T12:34:44.034Z,1.00
2019-06-01T12:35:42.542Z,1.10
2019-06-01T12:36:44.629Z,1.40
2019-06-01T12:38:02.006Z,1.10
2019-06-01T12:38:45.041Z,1.10
2019-06-01T12:39:44.392Z,1.20
2019-06-01T12:40:43.413Z,1.00
2019-06-01T12:41:43.573Z,1.00
2019-06-01T12:42:45.942Z,1.20
2019-06-01T12:43:43.962Z,1.40
2019-06-01T12:44:44.071Z,1.10
2019-06-01T12:45:44.314Z,1.10
2019-06-01T12:46:44.451Z,1.00
2019-06-01T12:47:44.588Z,1.20
2019-06-01T12:48:44.747Z,1.10
2019-06-01T12:49:46.012Z,1.10
2019-06-01T12:50:48.266Z,1.20
2019-06-01T12:51:48.974Z,1.30
2019-06-01T12:52:46.361Z,1.30
2019-06-01T12:53:46.629Z,1.10
2019-06-01T12:54:46.718Z,1.20
2019-06-01T12:55:46.735Z,1.10
2019-06-01T12:56:47.844Z,1.10
2019-06-01T12:57:47.154Z,1.20
2019-06-01T12:58:48.215Z,1.10
2019-06-01T12:59:47.581Z,1.10
2019-06-01T13:00:48.258Z,1.10
2019-06-01T13:01:47.364Z,1.10
2019-06-01T13:02:56.594Z,1.20
2019-06-01T13:03:49.705Z,1.10
2019-06-01T13:04:49.074Z,1.20
2019-06-01T13:05:47.938Z,1.30
2019-06-01T13:06:51.145Z,1.20
2019-06-01T13:07:59.841Z,1.20
2019-06-01T13:08:50.466Z,1.30
2019-06-01T13:09:48.670Z,1.40
2019-06-01T13:10:49.996Z,1.10
2019-06-01T13:11:49.649Z,1.20
2019-06-01T13:12:49.653Z,1.40
2019-06-01T13:13:51.394Z,1.20
2019-06-01T13:14:49.433Z,1.10
2019-06-01T13:16:23.005Z,1.20
2019-06-01T13:17:03.019Z,1.20
2019-06-01T13:17:53.555Z,1.20
2019-06-01T13:18:49.978Z,1.30
2019-06-01T13:19:51.349Z,1.40
2019-06-01T13:20:51.553Z,1.10